LLBG/TLV METAR and TAF weather

Enter ICAO airport designator
Station Type Date Time Source
LLBG METAR 2020/03/31 11:50 UTC NOAA

LLBG 311150Z 24016KT CAVOK 30/02 Q1005 BECMG 24015G25KT 7000 RMK SCT140


Station Type Date Time Source
LLBG Decoded METAR 2020/03/31 11:50 UTC NOAA

Ben-Gurion International Airport, Israel (LLBG) 32-00N 034-54E 49M
Mar 31, 2020 - 07:50 AM EDT / 2020.03.31 1150 UTC
Wind: from the WSW (240 degrees) at 18 MPH (16 KT):0
Visibility: greater than 7 mile(s):0
Temperature: 86 F (30 C)
Dew Point: 35 F (2 C)
Relative Humidity: 16%
Pressure (altimeter): 29.68 in. Hg (1005 hPa)
ob: LLBG 311150Z 24016KT CAVOK 30/02 Q1005 BECMG 24015G25KT 7000 RMK SCT140
cycle: 12

Station Type Date Time Source
LLBG TAF 2020/03/31 12:21 UTC NOAA

TAF TAF LLBG 311118Z 3112/0112 23015KT 7000 NSC
BECMG 3114/3116 30008KT
BECMG 3118/3120 16005KT 9999 SCT015
BECMG 0101/0103 22007KT -RA SCT025
BECMG 0106/0108 27012KT TX30/3112Z TN15/0103Z

Example: see airport list